sensor_id;sensor_type;location;lat;lon;timestamp;temperature;humidity
6291;DHT22;3178;48.730;8.990;2022-10-16T00:01:16;15.10;99.90
6291;DHT22;3178;48.730;8.990;2022-10-16T00:03:43;15.10;99.90
6291;DHT22;3178;48.730;8.990;2022-10-16T00:06:10;15.10;99.90
6291;DHT22;3178;48.730;8.990;2022-10-16T00:08:36;15.10;99.90
6291;DHT22;3178;48.730;8.990;2022-10-16T00:13:30;15.00;99.90
6291;DHT22;3178;48.730;8.990;2022-10-16T00:15:57;15.00;99.90
6291;DHT22;3178;48.730;8.990;2022-10-16T00:18:24;15.00;99.90
6291;DHT22;3178;48.730;8.990;2022-10-16T00:20:49;15.00;99.90
6291;DHT22;3178;48.730;8.990;2022-10-16T00:23:15;14.90;99.90
6291;DHT22;3178;48.730;8.990;2022-10-16T00:25:41;14.80;99.90
6291;DHT22;3178;48.730;8.990;2022-10-16T00:28:06;14.90;99.90
6291;DHT22;3178;48.730;8.990;2022-10-16T00:30:32;14.90;99.90
6291;DHT22;3178;48.730;8.990;2022-10-16T00:32:57;14.90;99.90
6291;DHT22;3178;48.730;8.990;2022-10-16T00:35:23;14.80;99.90
6291;DHT22;3178;48.730;8.990;2022-10-16T00:37:49;14.80;99.90
6291;DHT22;3178;48.730;8.990;2022-10-16T00:40:15;14.80;99.90
6291;DHT22;3178;48.730;8.990;2022-10-16T00:42:40;14.80;99.90
6291;DHT22;3178;48.730;8.990;2022-10-16T00:45:08;14.70;99.90
6291;DHT22;3178;48.730;8.990;2022-10-16T00:47:44;14.70;99.90
6291;DHT22;3178;48.730;8.990;2022-10-16T00:50:30;14.70;99.90
6291;DHT22;3178;48.730;8.990;2022-10-16T00:52:57;14.80;99.90
6291;DHT22;3178;48.730;8.990;2022-10-16T00:55:24;14.60;99.90
6291;DHT22;3178;48.730;8.990;2022-10-16T00:57:50;14.70;99.90
6291;DHT22;3178;48.730;8.990;2022-10-16T01:00:20;14.60;99.90
6291;DHT22;3178;48.730;8.990;2022-10-16T01:02:57;14.60;99.90
6291;DHT22;3178;48.730;8.990;2022-10-16T01:05:25;14.60;99.90
6291;DHT22;3178;48.730;8.990;2022-10-16T01:08:17;14.60;99.90
6291;DHT22;3178;48.730;8.990;2022-10-16T01:10:46;14.60;99.90
6291;DHT22;3178;48.730;8.990;2022-10-16T01:13:21;14.60;99.90
6291;DHT22;3178;48.730;8.990;2022-10-16T01:16:12;14.50;99.90
6291;DHT22;3178;48.730;8.990;2022-10-16T01:19:00;14.60;99.90
6291;DHT22;3178;48.730;8.990;2022-10-16T01:21:31;14.60;99.90
6291;DHT22;3178;48.730;8.990;2022-10-16T01:24:17;14.60;99.90
6291;DHT22;3178;48.730;8.990;2022-10-16T01:27:07;14.60;99.90
6291;DHT22;3178;48.730;8.990;2022-10-16T01:32:19;14.50;99.90
6291;DHT22;3178;48.730;8.990;2022-10-16T01:35:02;14.50;99.90
6291;DHT22;3178;48.730;8.990;2022-10-16T01:37:41;14.50;99.90
6291;DHT22;3178;48.730;8.990;2022-10-16T01:40:11;14.50;99.90
6291;DHT22;3178;48.730;8.990;2022-10-16T01:42:41;14.60;99.90
6291;DHT22;3178;48.730;8.990;2022-10-16T01:45:10;14.60;99.90
6291;DHT22;3178;48.730;8.990;2022-10-16T01:47:39;14.60;99.90
6291;DHT22;3178;48.730;8.990;2022-10-16T01:50:06;14.60;99.90
6291;DHT22;3178;48.730;8.990;2022-10-16T01:52:36;14.60;99.90
6291;DHT22;3178;48.730;8.990;2022-10-16T01:55:04;14.60;99.90
6291;DHT22;3178;48.730;8.990;2022-10-16T01:57:32;14.60;99.90
6291;DHT22;3178;48.730;8.990;2022-10-16T02:00:03;14.60;99.90
6291;DHT22;3178;48.730;8.990;2022-10-16T02:02:30;14.60;99.90
6291;DHT22;3178;48.730;8.990;2022-10-16T02:05:10;14.70;99.90
6291;DHT22;3178;48.730;8.990;2022-10-16T02:07:36;14.70;99.90
6291;DHT22;3178;48.730;8.990;2022-10-16T02:10:02;14.70;99.90
6291;DHT22;3178;48.730;8.990;2022-10-16T02:12:31;14.70;99.90
6291;DHT22;3178;48.730;8.990;2022-10-16T02:14:58;14.70;99.90
6291;DHT22;3178;48.730;8.990;2022-10-16T02:17:24;14.90;99.90
6291;DHT22;3178;48.730;8.990;2022-10-16T02:19:52;14.70;99.90
6291;DHT22;3178;48.730;8.990;2022-10-16T02:22:31;14.90;99.90
6291;DHT22;3178;48.730;8.990;2022-10-16T02:25:13;14.70;99.90
6291;DHT22;3178;48.730;8.990;2022-10-16T02:28:05;14.70;99.90
6291;DHT22;3178;48.730;8.990;2022-10-16T02:33:21;14.70;99.90
6291;DHT22;3178;48.730;8.990;2022-10-16T02:35:49;14.80;99.90
6291;DHT22;3178;48.730;8.990;2022-10-16T02:38:16;14.70;99.90
6291;DHT22;3178;48.730;8.990;2022-10-16T02:40:42;14.80;99.90
6291;DHT22;3178;48.730;8.990;2022-10-16T02:43:08;14.70;99.90
6291;DHT22;3178;48.730;8.990;2022-10-16T02:45:34;14.70;99.90
6291;DHT22;3178;48.730;8.990;2022-10-16T02:48:00;14.80;99.90
6291;DHT22;3178;48.730;8.990;2022-10-16T02:50:26;14.80;99.90
6291;DHT22;3178;48.730;8.990;2022-10-16T02:52:51;14.70;99.90
6291;DHT22;3178;48.730;8.990;2022-10-16T02:55:17;14.70;99.90
6291;DHT22;3178;48.730;8.990;2022-10-16T02:57:43;14.70;99.90
6291;DHT22;3178;48.730;8.990;2022-10-16T03:00:14;14.70;99.90
6291;DHT22;3178;48.730;8.990;2022-10-16T03:02:40;14.70;99.90
6291;DHT22;3178;48.730;8.990;2022-10-16T03:05:06;14.70;99.90
6291;DHT22;3178;48.730;8.990;2022-10-16T03:07:32;14.70;99.90
6291;DHT22;3178;48.730;8.990;2022-10-16T03:09:57;14.70;99.90
6291;DHT22;3178;48.730;8.990;2022-10-16T03:12:26;14.70;99.90
6291;DHT22;3178;48.730;8.990;2022-10-16T03:14:52;14.70;99.90
6291;DHT22;3178;48.730;8.990;2022-10-16T03:17:17;14.70;99.90
6291;DHT22;3178;48.730;8.990;2022-10-16T03:19:43;14.70;99.90
6291;DHT22;3178;48.730;8.990;2022-10-16T03:22:09;14.70;99.90
6291;DHT22;3178;48.730;8.990;2022-10-16T03:24:34;14.80;99.90
6291;DHT22;3178;48.730;8.990;2022-10-16T03:27:00;14.70;99.90
6291;DHT22;3178;48.730;8.990;2022-10-16T03:29:25;14.70;99.90
6291;DHT22;3178;48.730;8.990;2022-10-16T03:31:51;14.70;99.90
6291;DHT22;3178;48.730;8.990;2022-10-16T03:34:17;14.80;99.90
6291;DHT22;3178;48.730;8.990;2022-10-16T03:36:42;14.70;99.90
6291;DHT22;3178;48.730;8.990;2022-10-16T03:39:08;14.60;99.90
6291;DHT22;3178;48.730;8.990;2022-10-16T03:41:33;14.80;99.90
6291;DHT22;3178;48.730;8.990;2022-10-16T03:43:59;14.70;99.90
6291;DHT22;3178;48.730;8.990;2022-10-16T03:46:24;14.70;99.90
6291;DHT22;3178;48.730;8.990;2022-10-16T03:48:50;14.70;99.90
6291;DHT22;3178;48.730;8.990;2022-10-16T03:51:15;14.70;99.90
6291;DHT22;3178;48.730;8.990;2022-10-16T03:53:41;14.60;99.90
6291;DHT22;3178;48.730;8.990;2022-10-16T03:56:06;14.60;99.90
6291;DHT22;3178;48.730;8.990;2022-10-16T03:58:32;14.60;99.90
6291;DHT22;3178;48.730;8.990;2022-10-16T04:00:58;14.60;99.90
6291;DHT22;3178;48.730;8.990;2022-10-16T04:03:23;14.60;99.90
6291;DHT22;3178;48.730;8.990;2022-10-16T04:05:49;14.60;99.90
6291;DHT22;3178;48.730;8.990;2022-10-16T04:08:15;14.60;99.90
6291;DHT22;3178;48.730;8.990;2022-10-16T04:10:43;14.50;99.90
6291;DHT22;3178;48.730;8.990;2022-10-16T04:13:09;14.50;99.90
6291;DHT22;3178;48.730;8.990;2022-10-16T04:15:34;14.50;99.90
6291;DHT22;3178;48.730;8.990;2022-10-16T04:18:00;14.50;99.90
6291;DHT22;3178;48.730;8.990;2022-10-16T04:20:25;14.50;99.90
6291;DHT22;3178;48.730;8.990;2022-10-16T04:22:51;14.50;99.90
6291;DHT22;3178;48.730;8.990;2022-10-16T04:25:16;14.50;99.90
6291;DHT22;3178;48.730;8.990;2022-10-16T04:27:42;14.50;99.90
6291;DHT22;3178;48.730;8.990;2022-10-16T04:30:08;14.60;99.90
6291;DHT22;3178;48.730;8.990;2022-10-16T04:32:33;14.50;99.90
6291;DHT22;3178;48.730;8.990;2022-10-16T04:35:00;14.50;99.90
6291;DHT22;3178;48.730;8.990;2022-10-16T04:37:26;14.50;99.90
6291;DHT22;3178;48.730;8.990;2022-10-16T04:39:52;14.50;99.90
6291;DHT22;3178;48.730;8.990;2022-10-16T04:42:18;14.50;99.90
6291;DHT22;3178;48.730;8.990;2022-10-16T04:44:44;14.40;99.90
6291;DHT22;3178;48.730;8.990;2022-10-16T04:47:09;14.50;99.90
6291;DHT22;3178;48.730;8.990;2022-10-16T04:49:35;14.50;99.90
6291;DHT22;3178;48.730;8.990;2022-10-16T04:52:00;14.50;99.90
6291;DHT22;3178;48.730;8.990;2022-10-16T04:54:26;14.50;99.90
6291;DHT22;3178;48.730;8.990;2022-10-16T04:56:51;14.50;99.90
6291;DHT22;3178;48.730;8.990;2022-10-16T04:59:18;14.50;99.90
6291;DHT22;3178;48.730;8.990;2022-10-16T05:01:44;14.50;99.90
6291;DHT22;3178;48.730;8.990;2022-10-16T05:04:10;14.60;99.90
6291;DHT22;3178;48.730;8.990;2022-10-16T05:06:37;14.50;99.90
6291;DHT22;3178;48.730;8.990;2022-10-16T05:09:04;14.60;99.90
6291;DHT22;3178;48.730;8.990;2022-10-16T05:11:30;14.60;99.90
6291;DHT22;3178;48.730;8.990;2022-10-16T05:13:55;14.60;99.90
6291;DHT22;3178;48.730;8.990;2022-10-16T05:16:21;14.50;99.90
6291;DHT22;3178;48.730;8.990;2022-10-16T05:18:47;14.50;99.90
6291;DHT22;3178;48.730;8.990;2022-10-16T05:21:12;14.50;99.90
6291;DHT22;3178;48.730;8.990;2022-10-16T05:23:38;14.50;99.90
6291;DHT22;3178;48.730;8.990;2022-10-16T05:26:03;14.50;99.90
6291;DHT22;3178;48.730;8.990;2022-10-16T05:28:29;14.50;99.90
6291;DHT22;3178;48.730;8.990;2022-10-16T05:30:56;14.50;99.90
6291;DHT22;3178;48.730;8.990;2022-10-16T05:33:23;14.50;99.90
6291;DHT22;3178;48.730;8.990;2022-10-16T05:35:49;14.50;99.90
6291;DHT22;3178;48.730;8.990;2022-10-16T05:38:15;14.50;99.90
6291;DHT22;3178;48.730;8.990;2022-10-16T05:40:41;14.50;99.90
6291;DHT22;3178;48.730;8.990;2022-10-16T05:43:07;14.60;99.90
6291;DHT22;3178;48.730;8.990;2022-10-16T05:45:32;14.40;99.90
6291;DHT22;3178;48.730;8.990;2022-10-16T05:47:58;14.40;99.90
6291;DHT22;3178;48.730;8.990;2022-10-16T05:50:24;14.40;99.90
6291;DHT22;3178;48.730;8.990;2022-10-16T05:52:50;14.50;99.90
6291;DHT22;3178;48.730;8.990;2022-10-16T05:55:15;14.50;99.90
6291;DHT22;3178;48.730;8.990;2022-10-16T05:57:41;14.40;99.90
6291;DHT22;3178;48.730;8.990;2022-10-16T06:00:07;14.40;99.90
6291;DHT22;3178;48.730;8.990;2022-10-16T06:02:32;14.50;99.90
6291;DHT22;3178;48.730;8.990;2022-10-16T06:04:58;14.60;99.90
6291;DHT22;3178;48.730;8.990;2022-10-16T06:07:23;14.60;99.90
6291;DHT22;3178;48.730;8.990;2022-10-16T06:09:50;14.50;99.90
6291;DHT22;3178;48.730;8.990;2022-10-16T06:12:16;14.50;99.90
6291;DHT22;3178;48.730;8.990;2022-10-16T06:14:42;14.60;99.90
6291;DHT22;3178;48.730;8.990;2022-10-16T06:17:07;14.50;99.90
6291;DHT22;3178;48.730;8.990;2022-10-16T06:19:33;14.50;99.90
6291;DHT22;3178;48.730;8.990;2022-10-16T06:21:58;14.50;99.90
6291;DHT22;3178;48.730;8.990;2022-10-16T06:24:25;14.50;99.90
6291;DHT22;3178;48.730;8.990;2022-10-16T06:26:51;14.50;99.90
6291;DHT22;3178;48.730;8.990;2022-10-16T06:29:16;14.50;99.90
6291;DHT22;3178;48.730;8.990;2022-10-16T06:31:42;14.50;99.90
6291;DHT22;3178;48.730;8.990;2022-10-16T06:34:09;14.50;99.90
6291;DHT22;3178;48.730;8.990;2022-10-16T06:36:37;14.60;99.90
6291;DHT22;3178;48.730;8.990;2022-10-16T06:39:03;14.60;99.90
6291;DHT22;3178;48.730;8.990;2022-10-16T06:41:28;14.60;99.90
6291;DHT22;3178;48.730;8.990;2022-10-16T06:43:54;14.60;99.90
6291;DHT22;3178;48.730;8.990;2022-10-16T06:46:22;14.70;99.90
6291;DHT22;3178;48.730;8.990;2022-10-16T06:48:48;14.80;99.90
6291;DHT22;3178;48.730;8.990;2022-10-16T06:51:16;14.70;99.90
6291;DHT22;3178;48.730;8.990;2022-10-16T06:53:43;14.70;99.90
6291;DHT22;3178;48.730;8.990;2022-10-16T06:58:46;14.80;99.90
6291;DHT22;3178;48.730;8.990;2022-10-16T07:01:13;14.70;99.90
6291;DHT22;3178;48.730;8.990;2022-10-16T07:03:41;14.80;99.90
6291;DHT22;3178;48.730;8.990;2022-10-16T07:06:08;14.90;99.90
6291;DHT22;3178;48.730;8.990;2022-10-16T07:08:36;15.00;99.90
6291;DHT22;3178;48.730;8.990;2022-10-16T07:11:06;14.90;99.90
6291;DHT22;3178;48.730;8.990;2022-10-16T07:13:36;14.90;99.90
6291;DHT22;3178;48.730;8.990;2022-10-16T07:16:11;14.90;99.90
6291;DHT22;3178;48.730;8.990;2022-10-16T07:18:37;15.00;99.90
6291;DHT22;3178;48.730;8.990;2022-10-16T07:21:11;15.00;99.90
6291;DHT22;3178;48.730;8.990;2022-10-16T07:23:37;15.10;99.90
6291;DHT22;3178;48.730;8.990;2022-10-16T07:26:04;15.10;99.90
6291;DHT22;3178;48.730;8.990;2022-10-16T07:28:30;15.10;99.90
6291;DHT22;3178;48.730;8.990;2022-10-16T07:31:01;15.10;99.90
6291;DHT22;3178;48.730;8.990;2022-10-16T07:33:27;15.10;99.90
6291;DHT22;3178;48.730;8.990;2022-10-16T07:35:54;15.00;99.90
6291;DHT22;3178;48.730;8.990;2022-10-16T07:38:21;15.10;99.90
6291;DHT22;3178;48.730;8.990;2022-10-16T07:40:47;15.10;99.90
6291;DHT22;3178;48.730;8.990;2022-10-16T07:43:14;15.20;99.90
6291;DHT22;3178;48.730;8.990;2022-10-16T07:45:47;15.20;99.90
6291;DHT22;3178;48.730;8.990;2022-10-16T07:48:14;15.20;99.90
6291;DHT22;3178;48.730;8.990;2022-10-16T07:50:39;15.30;99.90
6291;DHT22;3178;48.730;8.990;2022-10-16T07:53:05;15.20;99.90
6291;DHT22;3178;48.730;8.990;2022-10-16T07:55:31;15.40;99.90
6291;DHT22;3178;48.730;8.990;2022-10-16T07:57:57;15.20;99.90
6291;DHT22;3178;48.730;8.990;2022-10-16T08:00:22;15.20;99.90
6291;DHT22;3178;48.730;8.990;2022-10-16T08:02:48;15.30;99.90
6291;DHT22;3178;48.730;8.990;2022-10-16T08:05:13;15.40;99.90
6291;DHT22;3178;48.730;8.990;2022-10-16T08:07:39;15.40;99.90
6291;DHT22;3178;48.730;8.990;2022-10-16T08:10:05;15.50;99.90
6291;DHT22;3178;48.730;8.990;2022-10-16T08:12:30;15.50;99.90
6291;DHT22;3178;48.730;8.990;2022-10-16T08:14:56;15.50;99.90
6291;DHT22;3178;48.730;8.990;2022-10-16T08:17:21;15.60;99.90
6291;DHT22;3178;48.730;8.990;2022-10-16T08:19:47;15.70;99.90
6291;DHT22;3178;48.730;8.990;2022-10-16T08:22:13;15.80;99.90
6291;DHT22;3178;48.730;8.990;2022-10-16T08:24:39;15.80;99.90
6291;DHT22;3178;48.730;8.990;2022-10-16T08:27:05;15.90;99.90
6291;DHT22;3178;48.730;8.990;2022-10-16T08:29:31;15.90;99.90
6291;DHT22;3178;48.730;8.990;2022-10-16T08:31:56;16.10;99.90
6291;DHT22;3178;48.730;8.990;2022-10-16T08:34:22;16.00;99.90
6291;DHT22;3178;48.730;8.990;2022-10-16T08:36:47;16.10;99.90
6291;DHT22;3178;48.730;8.990;2022-10-16T08:39:13;16.10;99.90
6291;DHT22;3178;48.730;8.990;2022-10-16T08:49:59;16.20;99.90
6291;DHT22;3178;48.730;8.990;2022-10-16T08:52:30;16.30;99.90
6291;DHT22;3178;48.730;8.990;2022-10-16T08:54:58;16.40;99.90
6291;DHT22;3178;48.730;8.990;2022-10-16T08:57:25;16.30;99.90
6291;DHT22;3178;48.730;8.990;2022-10-16T08:59:59;16.30;99.90
6291;DHT22;3178;48.730;8.990;2022-10-16T09:02:35;16.40;99.90
6291;DHT22;3178;48.730;8.990;2022-10-16T09:05:20;16.40;99.90
6291;DHT22;3178;48.730;8.990;2022-10-16T09:08:09;16.50;99.90
6291;DHT22;3178;48.730;8.990;2022-10-16T09:11:04;16.60;99.90
6291;DHT22;3178;48.730;8.990;2022-10-16T09:13:58;16.80;99.90
6291;DHT22;3178;48.730;8.990;2022-10-16T09:16:28;17.00;99.90
6291;DHT22;3178;48.730;8.990;2022-10-16T09:19:21;17.30;99.90
6291;DHT22;3178;48.730;8.990;2022-10-16T09:21:50;17.70;99.90
6291;DHT22;3178;48.730;8.990;2022-10-16T09:24:25;18.00;99.90
6291;DHT22;3178;48.730;8.990;2022-10-16T09:26:51;18.30;99.90
6291;DHT22;3178;48.730;8.990;2022-10-16T09:29:18;18.60;99.90
6291;DHT22;3178;48.730;8.990;2022-10-16T09:31:48;18.90;99.90
6291;DHT22;3178;48.730;8.990;2022-10-16T09:34:35;18.90;99.90
6291;DHT22;3178;48.730;8.990;2022-10-16T09:37:05;18.90;99.90
6291;DHT22;3178;48.730;8.990;2022-10-16T09:39:48;18.80;99.90
6291;DHT22;3178;48.730;8.990;2022-10-16T09:42:17;18.80;99.90
6291;DHT22;3178;48.730;8.990;2022-10-16T09:44:47;18.80;99.90
6291;DHT22;3178;48.730;8.990;2022-10-16T09:49:57;18.80;99.90
6291;DHT22;3178;48.730;8.990;2022-10-16T09:52:25;18.90;99.90
6291;DHT22;3178;48.730;8.990;2022-10-16T09:55:23;19.00;99.90
6291;DHT22;3178;48.730;8.990;2022-10-16T09:57:53;19.10;99.90
6291;DHT22;3178;48.730;8.990;2022-10-16T10:00:20;19.20;99.90
6291;DHT22;3178;48.730;8.990;2022-10-16T10:02:46;19.30;99.90
6291;DHT22;3178;48.730;8.990;2022-10-16T10:05:23;19.30;99.90
6291;DHT22;3178;48.730;8.990;2022-10-16T10:07:58;19.50;99.90
6291;DHT22;3178;48.730;8.990;2022-10-16T10:10:30;19.50;99.90
6291;DHT22;3178;48.730;8.990;2022-10-16T10:12:57;19.70;99.90
6291;DHT22;3178;48.730;8.990;2022-10-16T10:15:24;19.80;99.90
6291;DHT22;3178;48.730;8.990;2022-10-16T10:17:55;20.10;99.90
6291;DHT22;3178;48.730;8.990;2022-10-16T10:20:30;20.10;99.90
6291;DHT22;3178;48.730;8.990;2022-10-16T10:22:58;20.10;99.90
6291;DHT22;3178;48.730;8.990;2022-10-16T10:36:27;20.20;99.90
6291;DHT22;3178;48.730;8.990;2022-10-16T10:39:25;20.20;99.90
6291;DHT22;3178;48.730;8.990;2022-10-16T10:42:05;20.30;99.90
6291;DHT22;3178;48.730;8.990;2022-10-16T10:55:03;22.90;99.90
6291;DHT22;3178;48.730;8.990;2022-10-16T11:00:21;23.30;99.90
6291;DHT22;3178;48.730;8.990;2022-10-16T11:06:08;23.10;99.90
6291;DHT22;3178;48.730;8.990;2022-10-16T11:08:45;23.00;99.90
6291;DHT22;3178;48.730;8.990;2022-10-16T11:11:25;22.90;99.90
6291;DHT22;3178;48.730;8.990;2022-10-16T11:13:59;22.80;99.90
6291;DHT22;3178;48.730;8.990;2022-10-16T11:16:43;22.70;99.90
6291;DHT22;3178;48.730;8.990;2022-10-16T11:19:28;22.60;99.90
6291;DHT22;3178;48.730;8.990;2022-10-16T11:22:22;22.50;99.90
6291;DHT22;3178;48.730;8.990;2022-10-16T11:25:28;22.50;99.90
6291;DHT22;3178;48.730;8.990;2022-10-16T11:28:07;22.40;99.90
6291;DHT22;3178;48.730;8.990;2022-10-16T11:30:54;22.40;99.90
6291;DHT22;3178;48.730;8.990;2022-10-16T11:33:36;22.50;99.90
6291;DHT22;3178;48.730;8.990;2022-10-16T11:36:13;22.60;99.90
6291;DHT22;3178;48.730;8.990;2022-10-16T11:41:35;23.70;99.90
6291;DHT22;3178;48.730;8.990;2022-10-16T11:46:48;25.00;99.90
6291;DHT22;3178;48.730;8.990;2022-10-16T11:49:19;25.50;99.90
6291;DHT22;3178;48.730;8.990;2022-10-16T11:51:57;26.10;99.90
6291;DHT22;3178;48.730;8.990;2022-10-16T11:54:45;26.30;99.90
6291;DHT22;3178;48.730;8.990;2022-10-16T11:57:32;26.70;99.90
6291;DHT22;3178;48.730;8.990;2022-10-16T12:00:05;27.10;99.90
6291;DHT22;3178;48.730;8.990;2022-10-16T12:02:54;26.90;99.90
6291;DHT22;3178;48.730;8.990;2022-10-16T12:05:46;27.20;99.90
6291;DHT22;3178;48.730;8.990;2022-10-16T12:08:16;27.40;99.90
6291;DHT22;3178;48.730;8.990;2022-10-16T12:10:45;27.50;99.90
6291;DHT22;3178;48.730;8.990;2022-10-16T12:13:33;27.40;99.90
6291;DHT22;3178;48.730;8.990;2022-10-16T12:18:43;26.90;99.90
6291;DHT22;3178;48.730;8.990;2022-10-16T12:21:10;26.70;99.90
6291;DHT22;3178;48.730;8.990;2022-10-16T12:23:50;26.50;99.90
6291;DHT22;3178;48.730;8.990;2022-10-16T12:26:27;26.40;99.90
6291;DHT22;3178;48.730;8.990;2022-10-16T12:28:54;26.40;99.90
6291;DHT22;3178;48.730;8.990;2022-10-16T12:31:20;26.30;99.90
6291;DHT22;3178;48.730;8.990;2022-10-16T12:34:22;26.30;99.90
6291;DHT22;3178;48.730;8.990;2022-10-16T12:36:49;26.30;99.90
6291;DHT22;3178;48.730;8.990;2022-10-16T12:39:23;26.10;99.90
6291;DHT22;3178;48.730;8.990;2022-10-16T12:42:01;25.90;99.90
6291;DHT22;3178;48.730;8.990;2022-10-16T12:44:32;25.60;99.90
6291;DHT22;3178;48.730;8.990;2022-10-16T12:46:58;25.30;99.90
6291;DHT22;3178;48.730;8.990;2022-10-16T12:49:34;25.00;99.90
6291;DHT22;3178;48.730;8.990;2022-10-16T12:52:02;24.80;99.90
6291;DHT22;3178;48.730;8.990;2022-10-16T12:54:35;24.60;99.90
6291;DHT22;3178;48.730;8.990;2022-10-16T13:10:46;23.80;99.90
6291;DHT22;3178;48.730;8.990;2022-10-16T13:17:01;23.60;99.90
6291;DHT22;3178;48.730;8.990;2022-10-16T13:19:51;23.50;99.90
6291;DHT22;3178;48.730;8.990;2022-10-16T13:24:55;23.40;99.90
6291;DHT22;3178;48.730;8.990;2022-10-16T13:30:17;23.30;99.90
6291;DHT22;3178;48.730;8.990;2022-10-16T13:32:48;23.30;99.90
6291;DHT22;3178;48.730;8.990;2022-10-16T13:35:26;23.30;99.90
6291;DHT22;3178;48.730;8.990;2022-10-16T13:38:11;23.30;99.90
6291;DHT22;3178;48.730;8.990;2022-10-16T13:40:48;23.40;99.90
6291;DHT22;3178;48.730;8.990;2022-10-16T13:43:14;23.40;99.90
6291;DHT22;3178;48.730;8.990;2022-10-16T13:45:41;23.50;99.90
6291;DHT22;3178;48.730;8.990;2022-10-16T13:48:09;23.50;99.90
6291;DHT22;3178;48.730;8.990;2022-10-16T13:50:37;23.50;99.90
6291;DHT22;3178;48.730;8.990;2022-10-16T13:53:21;23.50;99.90
6291;DHT22;3178;48.730;8.990;2022-10-16T13:55:46;23.40;99.90
6291;DHT22;3178;48.730;8.990;2022-10-16T13:58:16;23.30;99.90
6291;DHT22;3178;48.730;8.990;2022-10-16T14:01:03;23.30;99.90
6291;DHT22;3178;48.730;8.990;2022-10-16T14:03:31;23.20;99.90
6291;DHT22;3178;48.730;8.990;2022-10-16T14:06:06;23.10;99.90
6291;DHT22;3178;48.730;8.990;2022-10-16T14:08:46;23.00;99.90
6291;DHT22;3178;48.730;8.990;2022-10-16T14:11:21;22.90;99.90
6291;DHT22;3178;48.730;8.990;2022-10-16T14:13:49;22.90;99.90
6291;DHT22;3178;48.730;8.990;2022-10-16T14:16:30;22.80;99.90
6291;DHT22;3178;48.730;8.990;2022-10-16T14:19:01;22.80;99.90
6291;DHT22;3178;48.730;8.990;2022-10-16T14:21:28;22.70;99.90
6291;DHT22;3178;48.730;8.990;2022-10-16T14:23:54;22.60;99.90
6291;DHT22;3178;48.730;8.990;2022-10-16T14:26:23;22.60;99.90
6291;DHT22;3178;48.730;8.990;2022-10-16T14:29:14;22.60;99.90
6291;DHT22;3178;48.730;8.990;2022-10-16T14:31:40;22.60;99.90
6291;DHT22;3178;48.730;8.990;2022-10-16T14:36:55;22.50;99.90
6291;DHT22;3178;48.730;8.990;2022-10-16T14:39:22;22.40;99.90
6291;DHT22;3178;48.730;8.990;2022-10-16T14:41:50;22.40;99.90
6291;DHT22;3178;48.730;8.990;2022-10-16T14:44:22;22.40;99.90
6291;DHT22;3178;48.730;8.990;2022-10-16T14:46:50;22.40;99.90
6291;DHT22;3178;48.730;8.990;2022-10-16T14:49:19;22.40;99.90
6291;DHT22;3178;48.730;8.990;2022-10-16T14:51:46;22.40;99.90
6291;DHT22;3178;48.730;8.990;2022-10-16T14:54:12;22.30;99.90
6291;DHT22;3178;48.730;8.990;2022-10-16T14:57:17;22.30;99.90
6291;DHT22;3178;48.730;8.990;2022-10-16T14:59:44;22.30;99.90
6291;DHT22;3178;48.730;8.990;2022-10-16T15:04:45;22.30;99.90
6291;DHT22;3178;48.730;8.990;2022-10-16T15:07:10;22.20;99.90
6291;DHT22;3178;48.730;8.990;2022-10-16T15:09:36;22.10;99.90
6291;DHT22;3178;48.730;8.990;2022-10-16T15:12:01;22.10;99.90
6291;DHT22;3178;48.730;8.990;2022-10-16T15:14:27;22.00;99.90
6291;DHT22;3178;48.730;8.990;2022-10-16T15:16:52;22.00;99.90
6291;DHT22;3178;48.730;8.990;2022-10-16T15:19:18;21.90;99.90
6291;DHT22;3178;48.730;8.990;2022-10-16T15:21:43;21.80;99.90
6291;DHT22;3178;48.730;8.990;2022-10-16T15:24:11;21.60;99.90
6291;DHT22;3178;48.730;8.990;2022-10-16T15:26:38;21.60;99.90
6291;DHT22;3178;48.730;8.990;2022-10-16T15:29:03;21.70;99.90
6291;DHT22;3178;48.730;8.990;2022-10-16T15:31:29;21.60;99.90
6291;DHT22;3178;48.730;8.990;2022-10-16T15:33:54;21.60;99.90
6291;DHT22;3178;48.730;8.990;2022-10-16T15:36:28;21.60;99.90
6291;DHT22;3178;48.730;8.990;2022-10-16T15:38:55;21.50;99.90
6291;DHT22;3178;48.730;8.990;2022-10-16T15:41:21;21.30;99.90
6291;DHT22;3178;48.730;8.990;2022-10-16T15:43:48;21.30;99.90
6291;DHT22;3178;48.730;8.990;2022-10-16T15:46:17;21.10;99.90
6291;DHT22;3178;48.730;8.990;2022-10-16T15:48:43;21.20;99.90
6291;DHT22;3178;48.730;8.990;2022-10-16T15:51:08;21.00;99.90
6291;DHT22;3178;48.730;8.990;2022-10-16T15:53:34;21.00;99.90
6291;DHT22;3178;48.730;8.990;2022-10-16T15:56:04;21.00;99.90
6291;DHT22;3178;48.730;8.990;2022-10-16T15:58:29;20.80;99.90
6291;DHT22;3178;48.730;8.990;2022-10-16T16:00:56;20.80;99.90
6291;DHT22;3178;48.730;8.990;2022-10-16T16:03:23;20.70;99.90
6291;DHT22;3178;48.730;8.990;2022-10-16T16:05:48;20.60;99.90
6291;DHT22;3178;48.730;8.990;2022-10-16T16:08:14;20.60;99.90
6291;DHT22;3178;48.730;8.990;2022-10-16T16:10:39;20.50;99.90
6291;DHT22;3178;48.730;8.990;2022-10-16T16:13:05;20.40;99.90
6291;DHT22;3178;48.730;8.990;2022-10-16T16:15:30;20.30;99.90
6291;DHT22;3178;48.730;8.990;2022-10-16T16:17:56;20.20;99.90
6291;DHT22;3178;48.730;8.990;2022-10-16T16:20:22;20.20;99.90
6291;DHT22;3178;48.730;8.990;2022-10-16T16:22:48;20.10;99.90
6291;DHT22;3178;48.730;8.990;2022-10-16T16:25:14;19.90;99.90
6291;DHT22;3178;48.730;8.990;2022-10-16T16:27:39;19.80;99.90
6291;DHT22;3178;48.730;8.990;2022-10-16T16:30:06;19.90;99.90
6291;DHT22;3178;48.730;8.990;2022-10-16T16:32:33;19.70;99.90
6291;DHT22;3178;48.730;8.990;2022-10-16T16:34:59;19.50;99.90
6291;DHT22;3178;48.730;8.990;2022-10-16T16:37:25;19.40;99.90
6291;DHT22;3178;48.730;8.990;2022-10-16T16:39:51;19.30;99.90
6291;DHT22;3178;48.730;8.990;2022-10-16T16:42:16;19.20;99.90
6291;DHT22;3178;48.730;8.990;2022-10-16T16:44:42;19.20;99.90
6291;DHT22;3178;48.730;8.990;2022-10-16T16:47:07;19.20;99.90
6291;DHT22;3178;48.730;8.990;2022-10-16T16:49:33;18.90;99.90
6291;DHT22;3178;48.730;8.990;2022-10-16T16:51:58;18.90;99.90
6291;DHT22;3178;48.730;8.990;2022-10-16T16:54:24;18.90;99.90
6291;DHT22;3178;48.730;8.990;2022-10-16T16:56:50;18.70;99.90
6291;DHT22;3178;48.730;8.990;2022-10-16T16:59:18;18.70;99.90
6291;DHT22;3178;48.730;8.990;2022-10-16T17:01:45;18.70;99.90
6291;DHT22;3178;48.730;8.990;2022-10-16T17:04:11;18.60;99.90
6291;DHT22;3178;48.730;8.990;2022-10-16T17:06:37;18.50;99.90
6291;DHT22;3178;48.730;8.990;2022-10-16T17:09:05;18.50;99.90
6291;DHT22;3178;48.730;8.990;2022-10-16T17:11:31;18.30;99.90
6291;DHT22;3178;48.730;8.990;2022-10-16T17:13:58;18.30;99.90
6291;DHT22;3178;48.730;8.990;2022-10-16T17:16:33;18.30;99.90
6291;DHT22;3178;48.730;8.990;2022-10-16T17:19:01;18.20;99.90
6291;DHT22;3178;48.730;8.990;2022-10-16T17:21:27;18.00;99.90
6291;DHT22;3178;48.730;8.990;2022-10-16T17:23:54;18.10;99.90
6291;DHT22;3178;48.730;8.990;2022-10-16T17:26:20;18.00;99.90
6291;DHT22;3178;48.730;8.990;2022-10-16T17:28:49;17.90;99.90
6291;DHT22;3178;48.730;8.990;2022-10-16T17:31:17;17.90;99.90
6291;DHT22;3178;48.730;8.990;2022-10-16T17:33:44;17.70;99.90
6291;DHT22;3178;48.730;8.990;2022-10-16T17:36:10;17.80;99.90
6291;DHT22;3178;48.730;8.990;2022-10-16T17:38:39;17.80;99.90
6291;DHT22;3178;48.730;8.990;2022-10-16T17:43:40;17.60;99.90
6291;DHT22;3178;48.730;8.990;2022-10-16T17:46:06;17.50;99.90